sensor_id;sensor_type;location;lat;lon;timestamp;temperature;humidity
49218;DHT22;35045;51.194;7.268;2023-05-20T00:01:12;12.80;94.40
49218;DHT22;35045;51.194;7.268;2023-05-20T00:03:38;12.80;94.50
49218;DHT22;35045;51.194;7.268;2023-05-20T00:06:05;12.80;94.60
49218;DHT22;35045;51.194;7.268;2023-05-20T00:08:31;12.80;94.70
49218;DHT22;35045;51.194;7.268;2023-05-20T00:10:58;12.70;94.80
49218;DHT22;35045;51.194;7.268;2023-05-20T00:13:24;12.70;94.90
49218;DHT22;35045;51.194;7.268;2023-05-20T00:15:51;12.70;95.00
49218;DHT22;35045;51.194;7.268;2023-05-20T00:18:18;12.60;95.20
49218;DHT22;35045;51.194;7.268;2023-05-20T00:20:44;12.60;95.20
49218;DHT22;35045;51.194;7.268;2023-05-20T00:23:10;12.60;95.20
49218;DHT22;35045;51.194;7.268;2023-05-20T00:25:36;12.60;95.30
49218;DHT22;35045;51.194;7.268;2023-05-20T00:28:03;12.60;95.30
49218;DHT22;35045;51.194;7.268;2023-05-20T00:30:29;12.60;95.30
49218;DHT22;35045;51.194;7.268;2023-05-20T00:32:55;12.60;95.50
49218;DHT22;35045;51.194;7.268;2023-05-20T00:35:21;12.60;95.30
49218;DHT22;35045;51.194;7.268;2023-05-20T00:37:47;12.60;95.30
49218;DHT22;35045;51.194;7.268;2023-05-20T00:40:14;12.60;95.30
49218;DHT22;35045;51.194;7.268;2023-05-20T00:42:41;12.60;95.30
49218;DHT22;35045;51.194;7.268;2023-05-20T00:45:08;12.50;95.50
49218;DHT22;35045;51.194;7.268;2023-05-20T00:47:35;12.50;95.60
49218;DHT22;35045;51.194;7.268;2023-05-20T00:50:02;12.50;95.50
49218;DHT22;35045;51.194;7.268;2023-05-20T00:52:30;12.50;95.50
49218;DHT22;35045;51.194;7.268;2023-05-20T00:54:57;12.50;95.60
49218;DHT22;35045;51.194;7.268;2023-05-20T00:57:24;12.50;95.60
49218;DHT22;35045;51.194;7.268;2023-05-20T00:59:51;12.50;95.70
49218;DHT22;35045;51.194;7.268;2023-05-20T01:02:18;12.50;95.70
49218;DHT22;35045;51.194;7.268;2023-05-20T01:04:44;12.50;95.70
49218;DHT22;35045;51.194;7.268;2023-05-20T01:07:14;12.40;95.90
49218;DHT22;35045;51.194;7.268;2023-05-20T01:09:41;12.40;95.90
49218;DHT22;35045;51.194;7.268;2023-05-20T01:14:49;12.40;95.90
49218;DHT22;35045;51.194;7.268;2023-05-20T01:17:17;12.50;95.90
49218;DHT22;35045;51.194;7.268;2023-05-20T01:19:46;12.50;96.00
49218;DHT22;35045;51.194;7.268;2023-05-20T01:22:14;12.50;95.90
49218;DHT22;35045;51.194;7.268;2023-05-20T01:24:42;12.40;96.00
49218;DHT22;35045;51.194;7.268;2023-05-20T01:27:10;12.40;96.10
49218;DHT22;35045;51.194;7.268;2023-05-20T01:29:37;12.40;96.20
49218;DHT22;35045;51.194;7.268;2023-05-20T01:32:10;12.40;96.30
49218;DHT22;35045;51.194;7.268;2023-05-20T01:34:38;12.30;96.40
49218;DHT22;35045;51.194;7.268;2023-05-20T01:37:07;12.30;96.50
49218;DHT22;35045;51.194;7.268;2023-05-20T01:39:35;12.30;96.60
49218;DHT22;35045;51.194;7.268;2023-05-20T01:42:04;12.30;96.60
49218;DHT22;35045;51.194;7.268;2023-05-20T01:44:31;12.30;96.70
49218;DHT22;35045;51.194;7.268;2023-05-20T01:46:58;12.20;96.80
49218;DHT22;35045;51.194;7.268;2023-05-20T01:49:25;12.20;97.20
49218;DHT22;35045;51.194;7.268;2023-05-20T01:51:52;12.10;97.40
49218;DHT22;35045;51.194;7.268;2023-05-20T01:54:18;12.10;97.60
49218;DHT22;35045;51.194;7.268;2023-05-20T01:56:45;12.00;97.90
49218;DHT22;35045;51.194;7.268;2023-05-20T01:59:12;12.00;98.00
49218;DHT22;35045;51.194;7.268;2023-05-20T02:01:38;12.00;98.20
49218;DHT22;35045;51.194;7.268;2023-05-20T02:04:04;11.90;98.50
49218;DHT22;35045;51.194;7.268;2023-05-20T02:06:30;11.90;98.60
49218;DHT22;35045;51.194;7.268;2023-05-20T02:08:56;11.80;98.90
49218;DHT22;35045;51.194;7.268;2023-05-20T02:11:23;11.80;99.00
49218;DHT22;35045;51.194;7.268;2023-05-20T02:13:49;11.80;99.10
49218;DHT22;35045;51.194;7.268;2023-05-20T02:16:16;11.80;99.30
49218;DHT22;35045;51.194;7.268;2023-05-20T02:18:43;11.80;99.80
49218;DHT22;35045;51.194;7.268;2023-05-20T02:21:09;11.70;99.80
49218;DHT22;35045;51.194;7.268;2023-05-20T02:23:35;11.70;99.90
49218;DHT22;35045;51.194;7.268;2023-05-20T02:26:01;11.70;99.90
49218;DHT22;35045;51.194;7.268;2023-05-20T02:28:28;11.80;99.90
49218;DHT22;35045;51.194;7.268;2023-05-20T02:30:54;11.80;99.90
49218;DHT22;35045;51.194;7.268;2023-05-20T02:33:20;11.70;99.90
49218;DHT22;35045;51.194;7.268;2023-05-20T02:35:46;11.60;99.90
49218;DHT22;35045;51.194;7.268;2023-05-20T02:38:12;11.60;99.90
49218;DHT22;35045;51.194;7.268;2023-05-20T02:40:38;11.60;99.90
49218;DHT22;35045;51.194;7.268;2023-05-20T02:43:05;11.40;99.90
49218;DHT22;35045;51.194;7.268;2023-05-20T02:45:31;11.50;99.90
49218;DHT22;35045;51.194;7.268;2023-05-20T02:47:57;11.50;99.90
49218;DHT22;35045;51.194;7.268;2023-05-20T02:50:23;11.50;99.90
49218;DHT22;35045;51.194;7.268;2023-05-20T02:52:50;11.40;99.90
49218;DHT22;35045;51.194;7.268;2023-05-20T02:55:16;11.30;99.90
49218;DHT22;35045;51.194;7.268;2023-05-20T02:57:42;11.20;99.90
49218;DHT22;35045;51.194;7.268;2023-05-20T03:00:09;11.20;99.90
49218;DHT22;35045;51.194;7.268;2023-05-20T03:02:36;11.10;99.90
49218;DHT22;35045;51.194;7.268;2023-05-20T03:05:03;11.10;99.90
49218;DHT22;35045;51.194;7.268;2023-05-20T03:07:32;11.10;99.90
49218;DHT22;35045;51.194;7.268;2023-05-20T03:09:59;11.20;99.90
49218;DHT22;35045;51.194;7.268;2023-05-20T03:12:25;11.20;99.90
49218;DHT22;35045;51.194;7.268;2023-05-20T03:14:51;11.20;99.90
49218;DHT22;35045;51.194;7.268;2023-05-20T03:17:20;11.20;99.90
49218;DHT22;35045;51.194;7.268;2023-05-20T03:19:47;11.20;99.90
49218;DHT22;35045;51.194;7.268;2023-05-20T03:22:13;11.20;99.90
49218;DHT22;35045;51.194;7.268;2023-05-20T03:24:39;11.10;99.90
49218;DHT22;35045;51.194;7.268;2023-05-20T03:27:07;11.10;99.90
49218;DHT22;35045;51.194;7.268;2023-05-20T03:29:33;11.10;99.90
49218;DHT22;35045;51.194;7.268;2023-05-20T03:31:59;11.00;99.90
49218;DHT22;35045;51.194;7.268;2023-05-20T03:34:26;11.10;99.90
49218;DHT22;35045;51.194;7.268;2023-05-20T03:36:53;11.10;99.90
49218;DHT22;35045;51.194;7.268;2023-05-20T03:39:19;11.10;99.90
49218;DHT22;35045;51.194;7.268;2023-05-20T03:41:45;11.10;99.90
49218;DHT22;35045;51.194;7.268;2023-05-20T03:44:11;11.10;99.90
49218;DHT22;35045;51.194;7.268;2023-05-20T03:46:38;11.10;99.90
49218;DHT22;35045;51.194;7.268;2023-05-20T03:49:04;11.10;99.90
49218;DHT22;35045;51.194;7.268;2023-05-20T03:51:31;11.10;99.90
49218;DHT22;35045;51.194;7.268;2023-05-20T03:53:57;11.20;99.90
49218;DHT22;35045;51.194;7.268;2023-05-20T03:56:23;11.20;99.90
49218;DHT22;35045;51.194;7.268;2023-05-20T03:58:49;11.10;99.90
49218;DHT22;35045;51.194;7.268;2023-05-20T04:01:16;11.20;99.90
49218;DHT22;35045;51.194;7.268;2023-05-20T04:03:42;11.20;99.90
49218;DHT22;35045;51.194;7.268;2023-05-20T04:06:09;11.20;99.90
49218;DHT22;35045;51.194;7.268;2023-05-20T04:08:35;11.20;99.90
49218;DHT22;35045;51.194;7.268;2023-05-20T04:11:02;11.20;99.90
49218;DHT22;35045;51.194;7.268;2023-05-20T04:13:28;11.20;99.90
49218;DHT22;35045;51.194;7.268;2023-05-20T04:15:54;11.20;99.90
49218;DHT22;35045;51.194;7.268;2023-05-20T04:18:20;11.20;99.90
49218;DHT22;35045;51.194;7.268;2023-05-20T04:20:47;11.20;99.90
49218;DHT22;35045;51.194;7.268;2023-05-20T04:23:13;11.30;99.90
49218;DHT22;35045;51.194;7.268;2023-05-20T04:25:39;11.30;99.90
49218;DHT22;35045;51.194;7.268;2023-05-20T04:28:07;11.40;99.90
49218;DHT22;35045;51.194;7.268;2023-05-20T04:30:35;11.40;99.90
49218;DHT22;35045;51.194;7.268;2023-05-20T04:33:01;11.40;99.90
49218;DHT22;35045;51.194;7.268;2023-05-20T04:35:28;11.50;99.90
49218;DHT22;35045;51.194;7.268;2023-05-20T04:37:54;11.50;99.90
49218;DHT22;35045;51.194;7.268;2023-05-20T04:40:21;11.60;99.90
49218;DHT22;35045;51.194;7.268;2023-05-20T04:42:47;11.70;99.90
49218;DHT22;35045;51.194;7.268;2023-05-20T04:45:14;11.70;99.90
49218;DHT22;35045;51.194;7.268;2023-05-20T04:47:40;11.80;99.90
49218;DHT22;35045;51.194;7.268;2023-05-20T04:50:10;11.90;99.90
49218;DHT22;35045;51.194;7.268;2023-05-20T04:52:39;11.90;99.90
49218;DHT22;35045;51.194;7.268;2023-05-20T04:55:08;11.90;99.90
49218;DHT22;35045;51.194;7.268;2023-05-20T04:57:36;12.00;99.90
49218;DHT22;35045;51.194;7.268;2023-05-20T05:00:05;12.00;99.90
49218;DHT22;35045;51.194;7.268;2023-05-20T05:02:33;11.90;99.90
49218;DHT22;35045;51.194;7.268;2023-05-20T05:05:00;11.90;99.90
49218;DHT22;35045;51.194;7.268;2023-05-20T05:07:26;12.00;99.90
49218;DHT22;35045;51.194;7.268;2023-05-20T05:09:52;12.00;99.90
49218;DHT22;35045;51.194;7.268;2023-05-20T05:12:18;12.00;99.90
49218;DHT22;35045;51.194;7.268;2023-05-20T05:14:44;12.10;99.90
49218;DHT22;35045;51.194;7.268;2023-05-20T05:17:10;12.10;99.90
49218;DHT22;35045;51.194;7.268;2023-05-20T05:19:37;12.10;99.90
49218;DHT22;35045;51.194;7.268;2023-05-20T05:22:03;12.10;99.90
49218;DHT22;35045;51.194;7.268;2023-05-20T05:24:29;12.10;99.90
49218;DHT22;35045;51.194;7.268;2023-05-20T05:26:55;12.20;99.90
49218;DHT22;35045;51.194;7.268;2023-05-20T05:29:22;12.20;99.90
49218;DHT22;35045;51.194;7.268;2023-05-20T05:31:48;12.20;99.90
49218;DHT22;35045;51.194;7.268;2023-05-20T05:34:14;12.30;99.90
49218;DHT22;35045;51.194;7.268;2023-05-20T05:36:40;12.30;99.90
49218;DHT22;35045;51.194;7.268;2023-05-20T05:39:07;12.30;99.90
49218;DHT22;35045;51.194;7.268;2023-05-20T05:41:33;12.30;99.90
49218;DHT22;35045;51.194;7.268;2023-05-20T05:43:59;12.30;99.90
49218;DHT22;35045;51.194;7.268;2023-05-20T05:46:25;12.40;99.90
49218;DHT22;35045;51.194;7.268;2023-05-20T05:48:52;12.50;99.90
49218;DHT22;35045;51.194;7.268;2023-05-20T05:51:18;12.50;99.90
49218;DHT22;35045;51.194;7.268;2023-05-20T05:53:44;12.50;99.90
49218;DHT22;35045;51.194;7.268;2023-05-20T05:56:10;12.60;99.90
49218;DHT22;35045;51.194;7.268;2023-05-20T05:58:37;12.60;99.90
49218;DHT22;35045;51.194;7.268;2023-05-20T06:01:03;12.70;99.90
49218;DHT22;35045;51.194;7.268;2023-05-20T06:03:29;12.70;99.90
49218;DHT22;35045;51.194;7.268;2023-05-20T06:05:56;12.70;99.90
49218;DHT22;35045;51.194;7.268;2023-05-20T06:08:23;12.80;99.90
49218;DHT22;35045;51.194;7.268;2023-05-20T06:10:49;12.80;99.90
49218;DHT22;35045;51.194;7.268;2023-05-20T06:13:16;12.90;99.90
49218;DHT22;35045;51.194;7.268;2023-05-20T06:15:42;12.90;99.90
49218;DHT22;35045;51.194;7.268;2023-05-20T06:18:13;13.00;99.90
49218;DHT22;35045;51.194;7.268;2023-05-20T06:20:39;12.90;99.90
49218;DHT22;35045;51.194;7.268;2023-05-20T06:23:06;13.00;99.90
49218;DHT22;35045;51.194;7.268;2023-05-20T06:25:32;13.00;99.90
49218;DHT22;35045;51.194;7.268;2023-05-20T06:27:58;12.90;99.90
49218;DHT22;35045;51.194;7.268;2023-05-20T06:30:24;12.80;99.90
49218;DHT22;35045;51.194;7.268;2023-05-20T06:32:50;12.90;99.90
49218;DHT22;35045;51.194;7.268;2023-05-20T06:35:17;12.90;99.90
49218;DHT22;35045;51.194;7.268;2023-05-20T06:37:43;13.00;99.90
49218;DHT22;35045;51.194;7.268;2023-05-20T06:40:11;13.00;99.90
49218;DHT22;35045;51.194;7.268;2023-05-20T06:42:37;13.00;99.90
49218;DHT22;35045;51.194;7.268;2023-05-20T06:45:03;13.00;99.90
49218;DHT22;35045;51.194;7.268;2023-05-20T06:47:30;13.10;99.90
49218;DHT22;35045;51.194;7.268;2023-05-20T06:49:56;13.20;99.90
49218;DHT22;35045;51.194;7.268;2023-05-20T06:52:22;13.30;99.90
49218;DHT22;35045;51.194;7.268;2023-05-20T06:54:48;13.30;99.90
49218;DHT22;35045;51.194;7.268;2023-05-20T06:57:15;13.40;99.90
49218;DHT22;35045;51.194;7.268;2023-05-20T06:59:41;13.50;99.90
49218;DHT22;35045;51.194;7.268;2023-05-20T07:02:07;13.60;99.90
49218;DHT22;35045;51.194;7.268;2023-05-20T07:04:33;13.60;99.90
49218;DHT22;35045;51.194;7.268;2023-05-20T07:07:00;13.70;99.90
49218;DHT22;35045;51.194;7.268;2023-05-20T07:09:26;13.70;99.90
49218;DHT22;35045;51.194;7.268;2023-05-20T07:11:52;13.80;99.90
49218;DHT22;35045;51.194;7.268;2023-05-20T07:14:18;13.80;99.90
49218;DHT22;35045;51.194;7.268;2023-05-20T07:16:44;13.90;99.90
49218;DHT22;35045;51.194;7.268;2023-05-20T07:19:11;13.80;99.90
49218;DHT22;35045;51.194;7.268;2023-05-20T07:21:37;13.80;99.90
49218;DHT22;35045;51.194;7.268;2023-05-20T07:24:03;13.90;99.90
49218;DHT22;35045;51.194;7.268;2023-05-20T07:26:30;13.90;99.90
49218;DHT22;35045;51.194;7.268;2023-05-20T07:28:58;13.90;99.90
49218;DHT22;35045;51.194;7.268;2023-05-20T07:31:24;14.00;99.90
49218;DHT22;35045;51.194;7.268;2023-05-20T07:33:51;14.10;99.90
49218;DHT22;35045;51.194;7.268;2023-05-20T07:36:18;14.10;99.90
49218;DHT22;35045;51.194;7.268;2023-05-20T07:38:44;14.00;99.90
49218;DHT22;35045;51.194;7.268;2023-05-20T07:41:14;14.10;99.90
49218;DHT22;35045;51.194;7.268;2023-05-20T07:43:41;14.10;99.90
49218;DHT22;35045;51.194;7.268;2023-05-20T07:46:07;14.20;99.90
49218;DHT22;35045;51.194;7.268;2023-05-20T07:48:33;14.20;99.90
49218;DHT22;35045;51.194;7.268;2023-05-20T07:51:00;14.30;99.90
49218;DHT22;35045;51.194;7.268;2023-05-20T07:53:26;14.40;99.90
49218;DHT22;35045;51.194;7.268;2023-05-20T07:55:52;14.40;99.90
49218;DHT22;35045;51.194;7.268;2023-05-20T07:58:19;14.30;99.90
49218;DHT22;35045;51.194;7.268;2023-05-20T08:00:45;14.40;99.90
49218;DHT22;35045;51.194;7.268;2023-05-20T08:03:11;14.40;99.90
49218;DHT22;35045;51.194;7.268;2023-05-20T08:05:40;14.40;99.90
49218;DHT22;35045;51.194;7.268;2023-05-20T08:08:06;14.40;99.90
49218;DHT22;35045;51.194;7.268;2023-05-20T08:10:33;14.30;99.90
49218;DHT22;35045;51.194;7.268;2023-05-20T08:12:59;14.40;99.90
49218;DHT22;35045;51.194;7.268;2023-05-20T08:15:25;14.40;99.90
49218;DHT22;35045;51.194;7.268;2023-05-20T08:17:52;14.40;99.90
49218;DHT22;35045;51.194;7.268;2023-05-20T08:20:19;14.50;99.90
49218;DHT22;35045;51.194;7.268;2023-05-20T08:22:45;14.60;99.90
49218;DHT22;35045;51.194;7.268;2023-05-20T08:25:12;14.50;99.90
49218;DHT22;35045;51.194;7.268;2023-05-20T08:27:39;14.50;99.90
49218;DHT22;35045;51.194;7.268;2023-05-20T08:30:06;14.50;99.90
49218;DHT22;35045;51.194;7.268;2023-05-20T08:32:35;14.60;99.90
49218;DHT22;35045;51.194;7.268;2023-05-20T08:35:03;14.60;99.90
49218;DHT22;35045;51.194;7.268;2023-05-20T08:37:29;14.60;99.90
49218;DHT22;35045;51.194;7.268;2023-05-20T08:39:55;14.60;99.90
49218;DHT22;35045;51.194;7.268;2023-05-20T08:42:22;14.60;99.90
49218;DHT22;35045;51.194;7.268;2023-05-20T08:44:51;14.70;99.90
49218;DHT22;35045;51.194;7.268;2023-05-20T08:47:19;14.70;99.90
49218;DHT22;35045;51.194;7.268;2023-05-20T08:49:47;14.80;99.90
49218;DHT22;35045;51.194;7.268;2023-05-20T08:52:16;14.80;99.90
49218;DHT22;35045;51.194;7.268;2023-05-20T08:54:44;14.90;99.90
49218;DHT22;35045;51.194;7.268;2023-05-20T08:57:12;14.90;99.90
49218;DHT22;35045;51.194;7.268;2023-05-20T08:59:43;14.90;99.90
49218;DHT22;35045;51.194;7.268;2023-05-20T09:02:10;14.90;99.90
49218;DHT22;35045;51.194;7.268;2023-05-20T09:04:36;14.90;99.90
49218;DHT22;35045;51.194;7.268;2023-05-20T09:07:03;14.80;99.90
49218;DHT22;35045;51.194;7.268;2023-05-20T09:09:32;15.00;99.90
49218;DHT22;35045;51.194;7.268;2023-05-20T09:11:59;15.20;99.90
49218;DHT22;35045;51.194;7.268;2023-05-20T09:14:26;15.20;99.90
49218;DHT22;35045;51.194;7.268;2023-05-20T09:16:53;15.50;99.90
49218;DHT22;35045;51.194;7.268;2023-05-20T09:19:21;15.40;99.90
49218;DHT22;35045;51.194;7.268;2023-05-20T09:21:52;15.40;99.90
49218;DHT22;35045;51.194;7.268;2023-05-20T09:24:23;15.40;99.90
49218;DHT22;35045;51.194;7.268;2023-05-20T09:26:50;15.50;99.90
49218;DHT22;35045;51.194;7.268;2023-05-20T09:29:17;15.40;99.90
49218;DHT22;35045;51.194;7.268;2023-05-20T09:31:47;15.60;99.90
49218;DHT22;35045;51.194;7.268;2023-05-20T09:34:14;15.50;99.90
49218;DHT22;35045;51.194;7.268;2023-05-20T09:36:42;15.60;99.90
49218;DHT22;35045;51.194;7.268;2023-05-20T09:39:12;15.40;99.90
49218;DHT22;35045;51.194;7.268;2023-05-20T09:42:00;15.40;99.90
49218;DHT22;35045;51.194;7.268;2023-05-20T09:44:28;15.50;99.90
49218;DHT22;35045;51.194;7.268;2023-05-20T09:46:56;15.60;99.90
49218;DHT22;35045;51.194;7.268;2023-05-20T09:49:24;15.70;99.90
49218;DHT22;35045;51.194;7.268;2023-05-20T09:51:52;15.60;99.90
49218;DHT22;35045;51.194;7.268;2023-05-20T09:54:18;15.50;99.90
49218;DHT22;35045;51.194;7.268;2023-05-20T09:56:46;15.40;99.90
49218;DHT22;35045;51.194;7.268;2023-05-20T09:59:14;15.50;99.90
49218;DHT22;35045;51.194;7.268;2023-05-20T10:01:43;15.60;99.90
49218;DHT22;35045;51.194;7.268;2023-05-20T10:04:12;15.50;99.90
49218;DHT22;35045;51.194;7.268;2023-05-20T10:09:55;15.50;99.90
49218;DHT22;35045;51.194;7.268;2023-05-20T10:15:17;15.40;99.90
49218;DHT22;35045;51.194;7.268;2023-05-20T10:17:57;15.30;99.90
49218;DHT22;35045;51.194;7.268;2023-05-20T10:20:26;15.20;99.90
49218;DHT22;35045;51.194;7.268;2023-05-20T10:22:56;15.10;99.90
49218;DHT22;35045;51.194;7.268;2023-05-20T10:25:26;15.30;99.90
49218;DHT22;35045;51.194;7.268;2023-05-20T10:28:04;15.40;99.90
49218;DHT22;35045;51.194;7.268;2023-05-20T10:30:32;15.40;99.90
49218;DHT22;35045;51.194;7.268;2023-05-20T10:33:03;15.50;99.90
49218;DHT22;35045;51.194;7.268;2023-05-20T10:35:30;15.40;99.90
49218;DHT22;35045;51.194;7.268;2023-05-20T10:38:10;15.40;99.90
49218;DHT22;35045;51.194;7.268;2023-05-20T10:40:37;15.50;99.90
49218;DHT22;35045;51.194;7.268;2023-05-20T10:43:13;15.60;99.90
49218;DHT22;35045;51.194;7.268;2023-05-20T10:46:06;15.80;99.90
49218;DHT22;35045;51.194;7.268;2023-05-20T10:48:46;15.80;99.90
49218;DHT22;35045;51.194;7.268;2023-05-20T10:51:13;16.10;99.90
49218;DHT22;35045;51.194;7.268;2023-05-20T10:53:43;16.10;99.90
49218;DHT22;35045;51.194;7.268;2023-05-20T10:56:16;16.20;99.90
49218;DHT22;35045;51.194;7.268;2023-05-20T10:58:43;16.20;99.90
49218;DHT22;35045;51.194;7.268;2023-05-20T11:01:10;16.40;99.90
49218;DHT22;35045;51.194;7.268;2023-05-20T11:03:37;16.40;99.90
49218;DHT22;35045;51.194;7.268;2023-05-20T11:06:12;16.30;99.90
49218;DHT22;35045;51.194;7.268;2023-05-20T11:08:40;16.40;99.90
49218;DHT22;35045;51.194;7.268;2023-05-20T11:11:07;16.30;99.90
49218;DHT22;35045;51.194;7.268;2023-05-20T11:13:33;16.50;99.90
49218;DHT22;35045;51.194;7.268;2023-05-20T11:16:00;16.50;99.90
49218;DHT22;35045;51.194;7.268;2023-05-20T11:18:27;16.70;99.90
49218;DHT22;35045;51.194;7.268;2023-05-20T11:20:57;16.90;99.90
49218;DHT22;35045;51.194;7.268;2023-05-20T11:23:28;16.90;99.90
49218;DHT22;35045;51.194;7.268;2023-05-20T11:25:56;16.90;99.90
49218;DHT22;35045;51.194;7.268;2023-05-20T11:28:22;17.00;99.90
49218;DHT22;35045;51.194;7.268;2023-05-20T11:30:50;17.40;99.90
49218;DHT22;35045;51.194;7.268;2023-05-20T11:33:17;17.70;99.90
49218;DHT22;35045;51.194;7.268;2023-05-20T11:35:48;17.60;99.90
49218;DHT22;35045;51.194;7.268;2023-05-20T11:38:14;17.80;99.90
49218;DHT22;35045;51.194;7.268;2023-05-20T11:40:45;18.10;99.90
49218;DHT22;35045;51.194;7.268;2023-05-20T11:43:15;18.40;99.90
49218;DHT22;35045;51.194;7.268;2023-05-20T11:45:43;18.40;99.70
49218;DHT22;35045;51.194;7.268;2023-05-20T11:48:10;18.50;99.90
49218;DHT22;35045;51.194;7.268;2023-05-20T11:50:41;18.50;99.40
49218;DHT22;35045;51.194;7.268;2023-05-20T11:53:10;18.20;99.60
49218;DHT22;35045;51.194;7.268;2023-05-20T11:55:47;18.30;99.60
49218;DHT22;35045;51.194;7.268;2023-05-20T11:58:30;18.50;99.40
49218;DHT22;35045;51.194;7.268;2023-05-20T12:00:57;18.50;99.30
49218;DHT22;35045;51.194;7.268;2023-05-20T12:03:27;18.60;99.10
49218;DHT22;35045;51.194;7.268;2023-05-20T12:05:53;18.60;98.90
49218;DHT22;35045;51.194;7.268;2023-05-20T12:08:19;18.70;99.00
49218;DHT22;35045;51.194;7.268;2023-05-20T12:10:45;18.50;99.00
49218;DHT22;35045;51.194;7.268;2023-05-20T12:13:12;18.60;99.10
49218;DHT22;35045;51.194;7.268;2023-05-20T12:15:38;18.50;99.20
49218;DHT22;35045;51.194;7.268;2023-05-20T12:18:05;18.50;99.20
49218;DHT22;35045;51.194;7.268;2023-05-20T12:20:31;18.30;99.30
49218;DHT22;35045;51.194;7.268;2023-05-20T12:23:00;18.30;99.50
49218;DHT22;35045;51.194;7.268;2023-05-20T12:25:26;18.40;99.40
49218;DHT22;35045;51.194;7.268;2023-05-20T12:27:53;18.30;99.40
49218;DHT22;35045;51.194;7.268;2023-05-20T12:30:20;18.50;99.60
49218;DHT22;35045;51.194;7.268;2023-05-20T12:32:48;18.40;99.30
49218;DHT22;35045;51.194;7.268;2023-05-20T12:35:16;18.40;99.10
49218;DHT22;35045;51.194;7.268;2023-05-20T12:37:42;18.30;99.40
49218;DHT22;35045;51.194;7.268;2023-05-20T12:40:10;18.30;99.10
49218;DHT22;35045;51.194;7.268;2023-05-20T12:42:38;18.10;99.10
49218;DHT22;35045;51.194;7.268;2023-05-20T12:45:05;18.00;99.50
49218;DHT22;35045;51.194;7.268;2023-05-20T12:47:32;18.00;99.40
49218;DHT22;35045;51.194;7.268;2023-05-20T12:49:59;18.00;99.50
49218;DHT22;35045;51.194;7.268;2023-05-20T12:52:26;18.10;99.70
49218;DHT22;35045;51.194;7.268;2023-05-20T12:54:55;18.20;99.60
49218;DHT22;35045;51.194;7.268;2023-05-20T12:57:22;18.40;99.30
49218;DHT22;35045;51.194;7.268;2023-05-20T12:59:49;18.20;99.10
49218;DHT22;35045;51.194;7.268;2023-05-20T13:02:15;18.30;99.20
49218;DHT22;35045;51.194;7.268;2023-05-20T13:04:42;18.30;99.10
49218;DHT22;35045;51.194;7.268;2023-05-20T13:07:08;18.30;99.10
49218;DHT22;35045;51.194;7.268;2023-05-20T13:09:34;18.40;99.20
49218;DHT22;35045;51.194;7.268;2023-05-20T13:12:00;18.50;99.30
49218;DHT22;35045;51.194;7.268;2023-05-20T13:14:27;18.60;99.20
49218;DHT22;35045;51.194;7.268;2023-05-20T13:16:53;18.70;99.10
49218;DHT22;35045;51.194;7.268;2023-05-20T13:19:21;18.70;98.90
49218;DHT22;35045;51.194;7.268;2023-05-20T13:21:48;18.70;98.90
49218;DHT22;35045;51.194;7.268;2023-05-20T13:24:15;18.90;98.90
49218;DHT22;35045;51.194;7.268;2023-05-20T13:26:41;18.80;98.50
49218;DHT22;35045;51.194;7.268;2023-05-20T13:29:07;18.60;98.70
49218;DHT22;35045;51.194;7.268;2023-05-20T13:31:33;18.60;99.00
49218;DHT22;35045;51.194;7.268;2023-05-20T13:34:00;18.80;98.80
49218;DHT22;35045;51.194;7.268;2023-05-20T13:36:26;18.70;98.60
49218;DHT22;35045;51.194;7.268;2023-05-20T13:38:52;18.70;98.80
49218;DHT22;35045;51.194;7.268;2023-05-20T13:41:19;18.70;98.60
49218;DHT22;35045;51.194;7.268;2023-05-20T13:43:45;18.90;98.60
49218;DHT22;35045;51.194;7.268;2023-05-20T13:46:11;19.10;98.30
49218;DHT22;35045;51.194;7.268;2023-05-20T13:48:37;19.00;98.10
49218;DHT22;35045;51.194;7.268;2023-05-20T13:51:04;18.90;97.80
49218;DHT22;35045;51.194;7.268;2023-05-20T13:53:30;18.70;98.30
49218;DHT22;35045;51.194;7.268;2023-05-20T13:55:57;18.50;98.40
49218;DHT22;35045;51.194;7.268;2023-05-20T13:58:23;18.30;98.60
49218;DHT22;35045;51.194;7.268;2023-05-20T14:00:49;18.20;98.90
49218;DHT22;35045;51.194;7.268;2023-05-20T14:03:16;18.10;98.90
49218;DHT22;35045;51.194;7.268;2023-05-20T14:05:42;18.00;99.10
49218;DHT22;35045;51.194;7.268;2023-05-20T14:08:08;18.10;99.00
49218;DHT22;35045;51.194;7.268;2023-05-20T14:10:35;18.00;99.20
49218;DHT22;35045;51.194;7.268;2023-05-20T14:13:01;17.90;99.30
49218;DHT22;35045;51.194;7.268;2023-05-20T14:15:27;17.90;99.50
49218;DHT22;35045;51.194;7.268;2023-05-20T14:17:56;17.80;99.60
49218;DHT22;35045;51.194;7.268;2023-05-20T14:20:25;17.80;99.80
49218;DHT22;35045;51.194;7.268;2023-05-20T14:22:52;17.70;99.90
49218;DHT22;35045;51.194;7.268;2023-05-20T14:25:18;17.60;99.90
49218;DHT22;35045;51.194;7.268;2023-05-20T14:27:44;17.50;99.90
49218;DHT22;35045;51.194;7.268;2023-05-20T14:30:11;17.60;99.90
49218;DHT22;35045;51.194;7.268;2023-05-20T14:32:37;17.60;99.90
49218;DHT22;35045;51.194;7.268;2023-05-20T14:35:04;17.70;99.90
49218;DHT22;35045;51.194;7.268;2023-05-20T14:37:30;17.70;99.70
49218;DHT22;35045;51.194;7.268;2023-05-20T14:39:56;17.80;99.60
49218;DHT22;35045;51.194;7.268;2023-05-20T14:42:22;17.70;99.80
49218;DHT22;35045;51.194;7.268;2023-05-20T14:44:49;17.70;99.70
49218;DHT22;35045;51.194;7.268;2023-05-20T14:47:15;17.60;99.90
49218;DHT22;35045;51.194;7.268;2023-05-20T14:49:45;17.50;99.90
49218;DHT22;35045;51.194;7.268;2023-05-20T14:52:11;17.50;99.90
49218;DHT22;35045;51.194;7.268;2023-05-20T14:54:37;17.40;99.90
49218;DHT22;35045;51.194;7.268;2023-05-20T14:57:04;17.30;99.90
49218;DHT22;35045;51.194;7.268;2023-05-20T14:59:32;17.30;99.90
49218;DHT22;35045;51.194;7.268;2023-05-20T15:01:58;17.30;99.90
49218;DHT22;35045;51.194;7.268;2023-05-20T15:04:25;17.40;99.90
49218;DHT22;35045;51.194;7.268;2023-05-20T15:06:51;17.30;99.90
49218;DHT22;35045;51.194;7.268;2023-05-20T15:09:18;17.10;99.90
49218;DHT22;35045;51.194;7.268;2023-05-20T15:11:45;17.10;99.90
49218;DHT22;35045;51.194;7.268;2023-05-20T15:14:11;17.10;99.90
49218;DHT22;35045;51.194;7.268;2023-05-20T15:16:37;17.10;99.90
49218;DHT22;35045;51.194;7.268;2023-05-20T15:19:03;17.10;99.90
49218;DHT22;35045;51.194;7.268;2023-05-20T15:21:29;17.10;99.90
49218;DHT22;35045;51.194;7.268;2023-05-20T15:23:56;17.10;99.90
49218;DHT22;35045;51.194;7.268;2023-05-20T15:26:23;17.10;99.90
49218;DHT22;35045;51.194;7.268;2023-05-20T15:28:49;17.10;99.90
49218;DHT22;35045;51.194;7.268;2023-05-20T15:31:16;17.00;99.90
49218;DHT22;35045;51.194;7.268;2023-05-20T15:33:42;16.90;99.90
49218;DHT22;35045;51.194;7.268;2023-05-20T15:36:08;16.90;99.90
49218;DHT22;35045;51.194;7.268;2023-05-20T15:38:34;16.90;99.90